createdAt,value
2016-04-24T00:00:15.187Z,15.44
2016-04-24T00:01:15.173Z,15.46
2016-04-24T00:02:15.176Z,15.46
2016-04-24T00:03:15.133Z,15.59
2016-04-24T00:04:16.556Z,15.62
2016-04-24T00:05:15.091Z,15.47
2016-04-24T00:06:15.094Z,15.52
2016-04-24T00:07:15.533Z,15.39
2016-04-24T00:08:15.068Z,15.47
2016-04-24T00:09:15.055Z,15.51
2016-04-24T00:10:15.026Z,15.59
2016-04-24T00:11:15.030Z,15.64
2016-04-24T00:12:15.000Z,15.43
2016-04-24T00:13:15.002Z,15.49
2016-04-24T00:14:14.975Z,15.37
2016-04-24T00:15:14.961Z,15.36
2016-04-24T00:16:14.949Z,15.4
2016-04-24T00:17:14.920Z,15.37
2016-04-24T00:18:14.907Z,15.37
2016-04-24T00:19:14.879Z,15.37
2016-04-24T00:20:14.881Z,15.37
2016-04-24T00:21:14.852Z,15.42
2016-04-24T00:22:15.449Z,15.51
2016-04-24T00:23:14.826Z,15.46
2016-04-24T00:24:14.815Z,15.49
2016-04-24T00:25:14.801Z,15.46
2016-04-24T00:26:14.787Z,15.49
2016-04-24T00:27:14.760Z,15.46
2016-04-24T00:28:14.746Z,15.37
2016-04-24T00:29:14.733Z,15.35
2016-04-24T00:30:14.721Z,15.18
2016-04-24T00:31:14.739Z,15.37
2016-04-24T00:32:14.695Z,15.4
2016-04-24T00:33:14.681Z,15.36
2016-04-24T00:34:14.684Z,15.39
2016-04-24T00:35:14.625Z,15.47
2016-04-24T00:36:14.627Z,15.42
2016-04-24T00:37:14.770Z,15.29
2016-04-24T00:38:14.602Z,15.17
2016-04-24T00:39:14.588Z,15.29
2016-04-24T00:40:14.576Z,15.4
2016-04-24T00:41:14.547Z,15.43
2016-04-24T00:42:14.533Z,15.4
2016-04-24T00:43:14.537Z,15.33
2016-04-24T00:44:14.368Z,15.36
2016-04-24T00:45:14.479Z,15.37
2016-04-24T00:46:14.483Z,15.37
2016-04-24T00:47:14.485Z,15.39
2016-04-24T00:48:14.441Z,15.42
2016-04-24T00:49:14.427Z,15.35
2016-04-24T00:50:14.415Z,15.37
2016-04-24T00:51:14.387Z,15.37
2016-04-24T00:52:14.904Z,15.46
2016-04-24T00:53:14.282Z,15.4
2016-04-24T00:54:14.551Z,15.37
2016-04-24T00:55:14.334Z,15.31
2016-04-24T00:56:14.322Z,15.27
2016-04-24T00:57:14.168Z,15.22
2016-04-24T00:58:14.280Z,15.25
2016-04-24T00:59:14.284Z,15.27
2016-04-24T01:00:14.254Z,15.29
2016-04-24T01:01:14.241Z,15.36
2016-04-24T01:02:14.229Z,15.39
2016-04-24T01:03:14.215Z,15.19
2016-04-24T01:04:14.187Z,15.39
2016-04-24T01:05:14.190Z,15.18
2016-04-24T01:06:14.161Z,15.07
2016-04-24T01:07:14.148Z,15.06
2016-04-24T01:08:14.135Z,15.11
2016-04-24T01:09:14.138Z,15.14
2016-04-24T01:10:14.094Z,15.19
2016-04-24T01:11:14.080Z,15.11
2016-04-24T01:12:14.053Z,15.15
2016-04-24T01:13:14.055Z,15.18
2016-04-24T01:14:14.041Z,15.25
2016-04-24T01:15:14.014Z,15.21
2016-04-24T01:16:14.016Z,15.11
2016-04-24T01:17:13.987Z,15.09
2016-04-24T01:18:13.975Z,15.1
2016-04-24T01:19:13.962Z,15.06
2016-04-24T01:20:13.949Z,15.09
2016-04-24T01:21:13.936Z,15.03
2016-04-24T01:22:14.579Z,15.06
2016-04-24T01:23:13.928Z,15.07
2016-04-24T01:24:13.883Z,15.07
2016-04-24T01:25:13.870Z,15.02
2016-04-24T01:26:13.842Z,15.11
2016-04-24T01:27:13.828Z,15.07
2016-04-24T01:28:13.801Z,15.1
2016-04-24T01:29:13.803Z,15.1
2016-04-24T01:30:13.790Z,15.11
2016-04-24T01:31:13.762Z,15.24
2016-04-24T01:32:13.764Z,15.14
2016-04-24T01:33:13.736Z,15.09
2016-04-24T01:34:13.722Z,15.14
2016-04-24T01:35:13.725Z,15.07
2016-04-24T01:36:13.697Z,15.06
2016-04-24T01:37:13.575Z,15.1
2016-04-24T01:38:14.936Z,15
2016-04-24T01:39:13.658Z,15.15
2016-04-24T01:40:13.613Z,15.06
2016-04-24T01:41:13.616Z,14.99
2016-04-24T01:42:13.604Z,15.11
2016-04-24T01:43:13.574Z,15.1
2016-04-24T01:44:13.578Z,15.02
2016-04-24T01:45:13.565Z,15.02
2016-04-24T01:46:13.537Z,15.02
2016-04-24T01:47:13.524Z,15.04
2016-04-24T01:48:13.510Z,14.99
2016-04-24T01:49:13.529Z,15.03
2016-04-24T01:50:13.468Z,15
2016-04-24T01:51:13.456Z,15.04
2016-04-24T01:52:13.615Z,15
2016-04-24T01:53:13.446Z,14.89
2016-04-24T01:54:13.451Z,14.84
2016-04-24T01:55:13.463Z,14.81
2016-04-24T01:56:13.506Z,14.81
2016-04-24T01:57:13.517Z,14.86
2016-04-24T01:58:13.546Z,14.84
2016-04-24T01:59:13.550Z,14.92
2016-04-24T02:00:13.537Z,14.91
2016-04-24T02:01:13.523Z,14.63
2016-04-24T02:02:13.541Z,14.89
2016-04-24T02:03:13.558Z,14.68
2016-04-24T02:04:13.520Z,14.7
2016-04-24T02:05:13.529Z,14.68
2016-04-24T02:06:13.520Z,14.7
2016-04-24T02:07:13.622Z,14.62
2016-04-24T02:08:14.177Z,14.72
2016-04-24T02:09:13.479Z,14.82
2016-04-24T02:10:13.468Z,14.82
2016-04-24T02:11:13.442Z,14.77
2016-04-24T02:12:13.430Z,14.63
2016-04-24T02:13:13.420Z,14.63
2016-04-24T02:14:13.408Z,14.62
2016-04-24T02:15:13.395Z,14.63
2016-04-24T02:16:13.367Z,14.63
2016-04-24T02:17:13.354Z,14.55
2016-04-24T02:18:13.357Z,14.62
2016-04-24T02:19:13.328Z,14.51
2016-04-24T02:20:13.317Z,14.54
2016-04-24T02:21:13.304Z,14.62
2016-04-24T02:22:14.041Z,14.6
2016-04-24T02:23:13.341Z,14.65
2016-04-24T02:24:13.235Z,14.73
2016-04-24T02:25:13.238Z,14.62
2016-04-24T02:26:13.224Z,14.58
2016-04-24T02:27:13.212Z,14.58
2016-04-24T02:28:13.183Z,14.55
2016-04-24T02:29:13.170Z,14.6
2016-04-24T02:30:13.141Z,14.62
2016-04-24T02:31:13.144Z,14.62
2016-04-24T02:32:13.131Z,14.62
2016-04-24T02:33:13.134Z,14.62
2016-04-24T02:34:13.090Z,14.63
2016-04-24T02:35:13.076Z,14.59
2016-04-24T02:36:13.048Z,14.5
2016-04-24T02:37:13.145Z,14.68
2016-04-24T02:38:12.897Z,14.6
2016-04-24T02:39:13.010Z,14.62
2016-04-24T02:40:16.872Z,14.7
2016-04-24T02:41:12.984Z,14.7
2016-04-24T02:42:12.955Z,14.62
2016-04-24T02:43:12.942Z,14.63
2016-04-24T02:44:12.928Z,14.5
2016-04-24T02:45:12.900Z,14.51
2016-04-24T02:46:12.903Z,14.51
2016-04-24T02:47:12.891Z,14.53
2016-04-24T02:48:12.878Z,14.47
2016-04-24T02:49:12.849Z,14.5
2016-04-24T02:50:12.820Z,14.58
2016-04-24T02:51:12.822Z,14.53
2016-04-24T02:52:12.794Z,14.6
2016-04-24T02:53:13.563Z,14.59
2016-04-24T02:54:12.768Z,14.51
2016-04-24T02:55:12.756Z,14.5
2016-04-24T02:56:12.727Z,14.6
2016-04-24T02:57:12.729Z,14.51
2016-04-24T02:58:12.701Z,14.44
2016-04-24T02:59:12.688Z,14.59
2016-04-24T03:00:12.676Z,14.6
2016-04-24T03:01:12.662Z,14.54
2016-04-24T03:02:12.649Z,14.55
2016-04-24T03:03:12.620Z,14.59
2016-04-24T03:04:12.607Z,14.53
2016-04-24T03:05:12.595Z,14.5
2016-04-24T03:06:12.597Z,14.59
2016-04-24T03:07:12.554Z,14.5
2016-04-24T03:08:12.837Z,14.54
2016-04-24T03:09:12.559Z,14.5
2016-04-24T03:10:12.531Z,14.48
2016-04-24T03:11:12.501Z,14.4
2016-04-24T03:12:12.473Z,14.5
2016-04-24T03:13:12.461Z,14.5
2016-04-24T03:14:12.447Z,14.45
2016-04-24T03:15:12.450Z,14.58
2016-04-24T03:16:12.422Z,14.51
2016-04-24T03:17:12.393Z,14.53
2016-04-24T03:18:12.395Z,14.48
2016-04-24T03:19:12.352Z,14.65
2016-04-24T03:20:11.589Z,14.5
2016-04-24T03:21:12.357Z,14.62
2016-04-24T03:22:12.328Z,14.51
2016-04-24T03:23:12.377Z,14.48
2016-04-24T03:24:12.286Z,14.58
2016-04-24T03:25:12.274Z,14.62
2016-04-24T03:26:12.246Z,14.47
2016-04-24T03:27:12.232Z,14.58
2016-04-24T03:28:12.235Z,14.59
2016-04-24T03:29:12.206Z,14.54
2016-04-24T03:30:12.209Z,14.55
2016-04-24T03:31:12.180Z,14.48
2016-04-24T03:32:12.168Z,14.59
2016-04-24T03:33:12.154Z,14.55
2016-04-24T03:34:12.142Z,14.53
2016-04-24T03:35:12.113Z,14.48
2016-04-24T03:36:11.943Z,14.47
2016-04-24T03:37:12.087Z,14.48
2016-04-24T03:38:12.356Z,14.4
2016-04-24T03:39:12.045Z,14.54
2016-04-24T03:40:12.033Z,14.48
2016-04-24T03:41:12.020Z,14.53
2016-04-24T03:42:12.006Z,14.5
2016-04-24T03:43:11.978Z,14.5
2016-04-24T03:44:11.965Z,14.5
2016-04-24T03:45:11.953Z,14.53
2016-04-24T03:46:11.940Z,14.45
2016-04-24T03:47:11.927Z,14.62
2016-04-24T03:48:11.913Z,14.44
2016-04-24T03:49:11.901Z,14.4
2016-04-24T03:50:11.872Z,14.54
2016-04-24T03:51:11.859Z,14.54
2016-04-24T03:52:11.846Z,14.48
2016-04-24T03:53:11.708Z,14.47
2016-04-24T03:54:11.804Z,14.48
2016-04-24T03:55:11.824Z,14.33
2016-04-24T03:56:11.764Z,14.41
2016-04-24T03:57:11.766Z,14.48
2016-04-24T03:58:11.737Z,14.5
2016-04-24T03:59:11.725Z,14.51
2016-04-24T04:00:11.726Z,14.37
2016-04-24T04:01:11.699Z,14.5
2016-04-24T04:02:11.670Z,14.4
2016-04-24T04:03:11.673Z,14.4
2016-04-24T04:04:11.690Z,14.45
2016-04-24T04:05:11.632Z,14.48
2016-04-24T04:06:11.603Z,14.48
2016-04-24T04:07:11.590Z,14.47
2016-04-24T04:08:11.608Z,14.3
2016-04-24T04:09:11.564Z,14.43
2016-04-24T04:10:11.551Z,14.4
2016-04-24T04:11:11.538Z,14.54
2016-04-24T04:12:11.509Z,14.47
2016-04-24T04:13:11.497Z,14.47
2016-04-24T04:14:11.483Z,14.44
2016-04-24T04:15:11.471Z,14.45
2016-04-24T04:16:11.442Z,14.45
2016-04-24T04:17:11.429Z,14.47
2016-04-24T04:18:11.416Z,14.4
2016-04-24T04:19:11.403Z,14.41
2016-04-24T04:20:11.391Z,14.35
2016-04-24T04:21:11.378Z,14.32
2016-04-24T04:22:11.364Z,14.44
2016-04-24T04:23:11.227Z,14.54
2016-04-24T04:24:11.322Z,14.51
2016-04-24T04:25:11.310Z,14.47
2016-04-24T04:26:11.313Z,14.51
2016-04-24T04:27:11.285Z,14.47
2016-04-24T04:28:11.271Z,14.47
2016-04-24T04:29:11.243Z,14.48
2016-04-24T04:30:11.230Z,14.45
2016-04-24T04:31:11.216Z,14.59
2016-04-24T04:32:11.204Z,14.44
2016-04-24T04:33:11.207Z,14.43
2016-04-24T04:34:11.178Z,14.47
2016-04-24T04:35:11.149Z,14.48
2016-04-24T04:36:11.137Z,14.41
2016-04-24T04:37:11.107Z,14.44
2016-04-24T04:38:11.689Z,14.47
2016-04-24T04:39:11.098Z,14.32
2016-04-24T04:40:11.070Z,14.41
2016-04-24T04:41:11.040Z,14.45
2016-04-24T04:42:11.043Z,14.32
2016-04-24T04:43:11.014Z,14.33
2016-04-24T04:44:11.001Z,14.43
2016-04-24T04:45:11.004Z,14.5
2016-04-24T04:46:10.976Z,14.43
2016-04-24T04:47:10.947Z,14.45
2016-04-24T04:48:10.950Z,14.41
2016-04-24T04:49:10.922Z,14.3
2016-04-24T04:50:10.909Z,14.35
2016-04-24T04:51:10.895Z,14.3
2016-04-24T04:52:10.867Z,14.33
2016-04-24T04:53:11.854Z,14.35
2016-04-24T04:54:10.841Z,14.4
2016-04-24T04:55:10.828Z,14.45
2016-04-24T04:56:10.502Z,14.43
2016-04-24T04:57:10.802Z,14.45
2016-04-24T04:58:10.805Z,14.48
2016-04-24T04:59:10.792Z,14.45
2016-04-24T05:00:10.748Z,14.37
2016-04-24T05:01:10.735Z,14.43
2016-04-24T05:02:10.721Z,14.41
2016-04-24T05:03:10.710Z,14.45
2016-04-24T05:04:10.680Z,14.41
2016-04-24T05:05:10.668Z,14.45
2016-04-24T05:06:10.654Z,14.35
2016-04-24T05:07:10.642Z,14.33
2016-04-24T05:08:11.144Z,14.37
2016-04-24T05:09:10.319Z,14.3
2016-04-24T05:10:10.587Z,14.3
2016-04-24T05:11:10.590Z,14.33
2016-04-24T05:12:10.561Z,14.32
2016-04-24T05:13:10.549Z,14.41
2016-04-24T05:14:10.536Z,14.47
2016-04-24T05:15:10.507Z,14.36
2016-04-24T05:16:10.478Z,14.18
2016-04-24T05:17:10.481Z,14.28
2016-04-24T05:18:10.467Z,14.23
2016-04-24T05:19:10.440Z,14.18
2016-04-24T05:20:10.427Z,14.3
2016-04-24T05:21:10.429Z,14.22
2016-04-24T05:22:10.400Z,14.29
2016-04-24T05:23:10.264Z,14.22
2016-04-24T05:24:10.375Z,14.33
2016-04-24T05:25:10.346Z,14.33
2016-04-24T05:26:10.318Z,14.37
2016-04-24T05:27:10.320Z,14.35
2016-04-24T05:28:10.308Z,14.26
2016-04-24T05:29:10.295Z,14.28
2016-04-24T05:30:10.282Z,14.36
2016-04-24T05:31:10.252Z,14.45
2016-04-24T05:32:10.224Z,14.33
2016-04-24T05:33:10.227Z,14.32
2016-04-24T05:34:10.215Z,14.3
2016-04-24T05:35:10.201Z,14.41
2016-04-24T05:36:10.188Z,14.33
2016-04-24T05:37:10.143Z,14.41
2016-04-24T05:38:10.226Z,14.37
2016-04-24T05:39:10.399Z,14.2
2016-04-24T05:40:10.418Z,14.11
2016-04-24T05:41:10.092Z,14.28
2016-04-24T05:42:10.065Z,14.32
2016-04-24T05:43:10.067Z,14.17
2016-04-24T05:44:10.038Z,14.14
2016-04-24T05:45:10.009Z,14.2
2016-04-24T05:46:10.012Z,14.28
2016-04-24T05:47:09.999Z,14.35
2016-04-24T05:48:09.971Z,14.29
2016-04-24T05:49:09.973Z,14.32
2016-04-24T05:50:09.945Z,14.22
2016-04-24T05:51:09.931Z,14.29
2016-04-24T05:52:09.763Z,14.18
2016-04-24T05:53:09.797Z,14.2
2016-04-24T05:54:10.659Z,14.14
2016-04-24T05:55:09.864Z,14.1
2016-04-24T05:56:09.852Z,14.17
2016-04-24T05:57:09.822Z,14.1
2016-04-24T05:58:09.825Z,14.17
2016-04-24T05:59:09.797Z,14.12
2016-04-24T06:00:09.800Z,14.15
2016-04-24T06:01:09.771Z,14.17
2016-04-24T06:02:09.774Z,14.2
2016-04-24T06:03:09.746Z,14.26
2016-04-24T06:04:09.716Z,14.3
2016-04-24T06:05:09.704Z,14.29
2016-04-24T06:06:09.691Z,14.25
2016-04-24T06:07:09.678Z,14.36
2016-04-24T06:08:09.540Z,14.33
2016-04-24T06:09:09.621Z,14.25
2016-04-24T06:10:09.639Z,14.26
2016-04-24T06:11:09.610Z,14.41
2016-04-24T06:12:09.598Z,14.29
2016-04-24T06:13:09.585Z,14.37
2016-04-24T06:14:09.556Z,14.36
2016-04-24T06:15:09.559Z,14.36
2016-04-24T06:16:09.358Z,14.36
2016-04-24T06:17:09.501Z,14.33
2016-04-24T06:18:09.504Z,14.47
2016-04-24T06:19:09.492Z,14.36
2016-04-24T06:20:09.463Z,14.48
2016-04-24T06:21:09.466Z,14.4
2016-04-24T06:22:09.280Z,14.37
2016-04-24T06:23:09.414Z,14.26
2016-04-24T06:24:10.261Z,14.36
2016-04-24T06:25:09.373Z,14.37
2016-04-24T06:26:09.375Z,14.43
2016-04-24T06:27:09.347Z,14.32
2016-04-24T06:28:09.334Z,14.54
2016-04-24T06:29:09.306Z,14.37
2016-04-24T06:30:09.292Z,14.36
2016-04-24T06:31:09.280Z,14.32
2016-04-24T06:32:09.267Z,14.41
2016-04-24T06:33:09.254Z,14.43
2016-04-24T06:34:09.241Z,14.5
2016-04-24T06:35:09.213Z,14.47
2016-04-24T06:36:09.199Z,14.45
2016-04-24T06:37:09.186Z,14.47
2016-04-24T06:38:09.174Z,14.5
2016-04-24T06:39:10.161Z,14.41
2016-04-24T06:40:09.132Z,14.51
2016-04-24T06:41:09.135Z,14.44
2016-04-24T06:42:09.106Z,14.45
2016-04-24T06:43:09.078Z,14.51
2016-04-24T06:44:09.079Z,14.53
2016-04-24T06:45:09.068Z,14.54
2016-04-24T06:46:09.038Z,14.5
2016-04-24T06:47:09.026Z,14.53
2016-04-24T06:48:09.012Z,14.58
2016-04-24T06:49:09.001Z,14.59
2016-04-24T06:50:08.987Z,14.51
2016-04-24T06:51:08.959Z,14.5
2016-04-24T06:52:08.945Z,14.55
2016-04-24T06:53:08.933Z,14.65
2016-04-24T06:54:08.764Z,14.6
2016-04-24T06:55:08.907Z,14.6
2016-04-24T06:56:08.878Z,14.68
2016-04-24T06:57:08.881Z,14.72
2016-04-24T06:58:08.867Z,14.6
2016-04-24T06:59:08.684Z,14.79
2016-04-24T07:00:08.826Z,14.72
2016-04-24T07:01:08.814Z,14.79
2016-04-24T07:02:08.785Z,14.79
2016-04-24T07:03:08.772Z,14.85
2016-04-24T07:04:08.743Z,15.03
2016-04-24T07:05:08.730Z,14.96
2016-04-24T07:06:08.733Z,15
2016-04-24T07:07:08.720Z,14.97
2016-04-24T07:08:08.707Z,15.02
2016-04-24T07:09:09.350Z,15.03
2016-04-24T07:10:08.666Z,15.06
2016-04-24T07:11:08.653Z,15.06
2016-04-24T07:12:08.624Z,14.99
2016-04-24T07:13:08.627Z,14.99
2016-04-24T07:14:08.599Z,15.07
2016-04-24T07:15:08.585Z,15.07
2016-04-24T07:16:08.573Z,15.03
2016-04-24T07:17:08.560Z,15.1
2016-04-24T07:18:08.531Z,15.17
2016-04-24T07:19:08.518Z,15.21
2016-04-24T07:20:08.504Z,15.21
2016-04-24T07:21:08.493Z,15.07
2016-04-24T07:22:08.465Z,15.19
2016-04-24T07:23:08.467Z,15.19
2016-04-24T07:24:08.625Z,15.22
2016-04-24T07:25:08.425Z,15.19
2016-04-24T07:26:08.427Z,15.25
2016-04-24T07:27:08.384Z,15.4
2016-04-24T07:28:08.387Z,15.28
2016-04-24T07:29:08.358Z,15.33
2016-04-24T07:30:08.344Z,15.29
2016-04-24T07:31:08.332Z,15.21
2016-04-24T07:32:08.319Z,15.28
2016-04-24T07:33:08.290Z,15.35
2016-04-24T07:34:08.278Z,15.36
2016-04-24T07:35:08.264Z,15.39
2016-04-24T07:36:08.252Z,15.4
2016-04-24T07:37:08.222Z,15.52
2016-04-24T07:38:08.210Z,15.46
2016-04-24T07:39:08.431Z,15.4
2016-04-24T07:40:08.184Z,15.42
2016-04-24T07:41:08.171Z,15.49
2016-04-24T07:42:08.143Z,15.59
2016-04-24T07:43:08.145Z,15.67
2016-04-24T07:44:08.148Z,15.68
2016-04-24T07:45:08.104Z,15.72
2016-04-24T07:46:08.091Z,15.68
2016-04-24T07:47:08.093Z,15.7
2016-04-24T07:48:08.065Z,15.79
2016-04-24T07:49:08.036Z,15.75
2016-04-24T07:50:08.040Z,15.91
2016-04-24T07:51:08.026Z,15.76
2016-04-24T07:52:07.998Z,15.65
2016-04-24T07:53:07.984Z,15.67
2016-04-24T07:54:08.268Z,15.64
2016-04-24T07:55:07.958Z,15.73
2016-04-24T07:56:07.931Z,15.8
2016-04-24T07:57:07.934Z,15.91
2016-04-24T07:58:07.904Z,16.13
2016-04-24T07:59:07.891Z,16.08
2016-04-24T08:00:07.878Z,16.13
2016-04-24T08:01:07.850Z,15.97
2016-04-24T08:02:07.836Z,16.04
2016-04-24T08:03:07.840Z,16.05
2016-04-24T08:04:07.811Z,16.1
2016-04-24T08:05:07.798Z,15.91
2016-04-24T08:06:07.800Z,16.16
2016-04-24T08:07:07.772Z,16.15
2016-04-24T08:08:07.759Z,16.09
2016-04-24T08:09:07.747Z,16.16
2016-04-24T08:10:07.718Z,16.13
2016-04-24T08:11:07.721Z,16.15
2016-04-24T08:12:07.691Z,16.24
2016-04-24T08:13:07.694Z,16.31
2016-04-24T08:14:07.666Z,16.42
2016-04-24T08:15:07.638Z,16.36
2016-04-24T08:16:07.640Z,16.43
2016-04-24T08:17:07.658Z,16.38
2016-04-24T08:18:07.598Z,16.36
2016-04-24T08:19:07.586Z,16.43
2016-04-24T08:20:07.573Z,16.33
2016-04-24T08:21:07.544Z,16.36
2016-04-24T08:22:09.360Z,16.49
2016-04-24T08:23:07.518Z,16.51
2016-04-24T08:24:07.395Z,16.46
2016-04-24T08:25:07.509Z,16.49
2016-04-24T08:26:07.511Z,16.46
2016-04-24T08:27:07.467Z,16.41
2016-04-24T08:28:07.453Z,16.56
2016-04-24T08:29:07.425Z,16.69
2016-04-24T08:30:07.412Z,16.71
2016-04-24T08:31:07.493Z,16.75
2016-04-24T08:32:07.418Z,16.79
2016-04-24T08:33:07.467Z,16.86
2016-04-24T08:34:07.361Z,16.83
2016-04-24T08:35:07.347Z,16.79
2016-04-24T08:36:07.334Z,16.81
2016-04-24T08:37:07.337Z,16.78
2016-04-24T08:38:07.293Z,16.72
2016-04-24T08:39:08.624Z,16.86
2016-04-24T08:40:07.267Z,16.93
2016-04-24T08:41:07.255Z,17.06
2016-04-24T08:42:07.241Z,17.04
2016-04-24T08:43:07.228Z,17.05
2016-04-24T08:44:07.216Z,17.16
2016-04-24T08:45:07.187Z,17.12
2016-04-24T08:46:07.174Z,16.94
2016-04-24T08:47:07.161Z,17.04
2016-04-24T08:48:07.148Z,17.08
2016-04-24T08:49:07.135Z,17.12
2016-04-24T08:50:07.137Z,17.11
2016-04-24T08:51:07.094Z,17.29
2016-04-24T08:52:07.097Z,17.14
2016-04-24T08:53:07.084Z,17.19
2016-04-24T08:54:07.382Z,17.16
2016-04-24T08:55:07.057Z,17.22
2016-04-24T08:56:07.045Z,17.27
2016-04-24T08:57:07.031Z,17.16
2016-04-24T08:58:06.987Z,17.3
2016-04-24T08:59:06.975Z,17.36
2016-04-24T09:00:06.993Z,17.39
2016-04-24T09:01:06.964Z,17.45
2016-04-24T09:02:06.951Z,17.48
2016-04-24T09:03:06.954Z,17.48
2016-04-24T09:04:06.925Z,17.46
2016-04-24T09:05:06.912Z,17.56
2016-04-24T09:06:06.915Z,17.72
2016-04-24T09:07:06.886Z,17.71
2016-04-24T09:08:06.858Z,17.82
2016-04-24T09:09:07.658Z,17.8
2016-04-24T09:10:06.848Z,17.9
2016-04-24T09:11:06.851Z,17.94
2016-04-24T09:12:06.806Z,18.11
2016-04-24T09:13:06.497Z,18.11
2016-04-24T09:14:06.765Z,18.04
2016-04-24T09:15:06.768Z,18.1
2016-04-24T09:16:06.771Z,18.04
2016-04-24T09:17:06.726Z,18.22
2016-04-24T09:18:06.713Z,18.13
2016-04-24T09:19:06.700Z,18.1
2016-04-24T09:20:06.688Z,18.15
2016-04-24T09:21:06.690Z,18.2
2016-04-24T09:22:06.662Z,18.22
2016-04-24T09:23:06.648Z,18.19
2016-04-24T09:24:06.479Z,18.29
2016-04-24T09:25:07.013Z,18.49
2016-04-24T09:26:06.594Z,18.47
2016-04-24T09:27:06.612Z,18.47
2016-04-24T09:28:06.584Z,18.56
2016-04-24T09:29:06.571Z,18.45
2016-04-24T09:30:06.558Z,18.47
2016-04-24T09:31:06.545Z,18.59
2016-04-24T09:32:11.313Z,18.66
2016-04-24T09:33:06.520Z,18.78
2016-04-24T09:34:06.350Z,18.74
2016-04-24T09:35:06.478Z,18.86
2016-04-24T09:36:06.465Z,18.96
2016-04-24T09:37:06.467Z,18.83
2016-04-24T09:38:06.455Z,18.8
2016-04-24T09:39:06.628Z,18.65
2016-04-24T09:40:06.289Z,18.68
2016-04-24T09:41:06.244Z,18.66
2016-04-24T09:42:06.403Z,18.8
2016-04-24T09:43:06.375Z,18.86
2016-04-24T09:44:06.361Z,18.98
2016-04-24T09:45:06.349Z,18.93
2016-04-24T09:46:06.336Z,19.04
2016-04-24T09:47:06.355Z,18.99
2016-04-24T09:48:06.325Z,19.02
2016-04-24T09:49:06.281Z,19.07
2016-04-24T09:50:06.283Z,19.09
2016-04-24T09:51:06.271Z,19.22
2016-04-24T09:52:06.257Z,19.31
2016-04-24T09:53:06.246Z,19.39
2016-04-24T09:54:06.138Z,19.33
2016-04-24T09:55:06.188Z,19.33
2016-04-24T09:56:06.221Z,19.47
2016-04-24T09:57:06.193Z,19.58
2016-04-24T09:58:06.180Z,19.52
2016-04-24T09:59:06.151Z,19.66
2016-04-24T10:00:06.170Z,19.66
2016-04-24T10:01:06.142Z,19.79
2016-04-24T10:02:06.316Z,19.69
2016-04-24T10:03:06.115Z,19.69
2016-04-24T10:04:06.118Z,19.73
2016-04-24T10:05:06.090Z,19.77
2016-04-24T10:06:06.076Z,20.13
2016-04-24T10:07:06.064Z,20.16
2016-04-24T10:08:06.051Z,20.11
2016-04-24T10:09:06.117Z,20.22
2016-04-24T10:10:06.181Z,20.4
2016-04-24T10:11:06.012Z,20.5
2016-04-24T10:12:06.000Z,20.58
2016-04-24T10:13:06.002Z,20.5
2016-04-24T10:14:05.973Z,20.84
2016-04-24T10:15:05.961Z,20.97
2016-04-24T10:16:05.947Z,21.14
2016-04-24T10:17:05.935Z,21.24
2016-04-24T10:18:05.953Z,21.12
2016-04-24T10:19:05.924Z,21.21
2016-04-24T10:20:05.912Z,21.25
2016-04-24T10:21:05.883Z,21.42
2016-04-24T10:22:05.885Z,21.29
2016-04-24T10:23:05.857Z,21.2
2016-04-24T10:24:05.843Z,21.36
2016-04-24T10:25:05.832Z,21.43
2016-04-24T10:26:05.818Z,21.61
2016-04-24T10:27:05.821Z,21.54
2016-04-24T10:28:05.823Z,21.66
2016-04-24T10:29:05.796Z,21.95
2016-04-24T10:30:05.782Z,22.13
2016-04-24T10:31:05.769Z,22.39
2016-04-24T10:32:05.756Z,22.43
2016-04-24T10:33:05.743Z,22.33
2016-04-24T10:34:05.746Z,22.57
2016-04-24T10:35:05.734Z,22.73
2016-04-24T10:36:05.721Z,22.65
2016-04-24T10:37:05.707Z,22.8
2016-04-24T10:38:05.694Z,22.93
2016-04-24T10:39:05.681Z,23.12
2016-04-24T10:40:05.684Z,23.12
2016-04-24T10:41:05.655Z,23.08
2016-04-24T10:42:05.642Z,23.17
2016-04-24T10:43:05.630Z,23.37
2016-04-24T10:44:05.648Z,23.23
2016-04-24T10:45:05.620Z,23.44
2016-04-24T10:46:05.606Z,23.62
2016-04-24T10:47:05.593Z,23.83
2016-04-24T10:48:05.581Z,23.39
2016-04-24T10:49:05.599Z,23.63
2016-04-24T10:50:05.570Z,23.95
2016-04-24T10:51:05.558Z,23.87
2016-04-24T10:52:05.544Z,24.14
2016-04-24T10:53:05.532Z,24.13
2016-04-24T10:54:05.519Z,24.29
2016-04-24T10:55:05.318Z,24.1
2016-04-24T10:56:05.508Z,24.6
2016-04-24T10:57:05.511Z,26.02
2016-04-24T10:58:05.482Z,27.74
2016-04-24T10:59:05.492Z,29.5
2016-04-24T11:00:05.535Z,31.03
2016-04-24T11:01:05.548Z,31.37
2016-04-24T11:02:05.592Z,33.05
2016-04-24T11:03:05.605Z,30.99
2016-04-24T11:04:05.644Z,28.6
2016-04-24T11:05:05.646Z,27.59
2016-04-24T11:06:05.664Z,28.14
2016-04-24T11:07:05.665Z,30.03
2016-04-24T11:08:05.683Z,31.97
2016-04-24T11:09:05.684Z,32.12
2016-04-24T11:10:05.536Z,33.05
2016-04-24T11:11:05.700Z,34.88
2016-04-24T11:12:05.693Z,36.04
2016-04-24T11:13:05.701Z,37.06
2016-04-24T11:14:05.708Z,38.2
2016-04-24T11:15:05.713Z,37.83
2016-04-24T11:16:05.701Z,37.63
2016-04-24T11:17:05.706Z,36.98
2016-04-24T11:18:05.696Z,36.18
2016-04-24T11:19:05.715Z,36.86
2016-04-24T11:20:05.703Z,37.65
2016-04-24T11:21:05.690Z,38.43
2016-04-24T11:22:05.521Z,39.06
2016-04-24T11:23:05.681Z,37.99
2016-04-24T11:24:05.699Z,36.28
2016-04-24T11:25:05.765Z,34.66
2016-04-24T11:26:05.690Z,33.24
2016-04-24T11:27:05.694Z,31.92
2016-04-24T11:28:05.696Z,32.49
2016-04-24T11:29:05.700Z,34.51
2016-04-24T11:30:05.703Z,35.92
2016-04-24T11:31:05.705Z,37.86
2016-04-24T11:32:05.723Z,36.08
2016-04-24T11:33:05.710Z,36.88
2016-04-24T11:34:05.728Z,37.29
2016-04-24T11:35:05.746Z,37.67
2016-04-24T11:36:05.733Z,35.08
2016-04-24T11:37:05.752Z,34.3
2016-04-24T11:38:05.724Z,33.8
2016-04-24T11:39:05.741Z,34.39
2016-04-24T11:40:05.479Z,35.86
2016-04-24T11:41:05.746Z,37.1
2016-04-24T11:42:05.749Z,36.68
2016-04-24T11:43:05.738Z,37.1
2016-04-24T11:44:05.755Z,36.27
2016-04-24T11:45:05.757Z,34.42
2016-04-24T11:46:05.760Z,33.79
2016-04-24T11:47:05.748Z,36.31
2016-04-24T11:48:05.782Z,37.77
2016-04-24T11:49:05.753Z,39.77
2016-04-24T11:50:05.756Z,40.15
2016-04-24T11:51:05.774Z,40.81
2016-04-24T11:52:05.777Z,39.72
2016-04-24T11:53:05.779Z,39.62
2016-04-24T11:54:05.767Z,40.63
2016-04-24T11:55:05.801Z,40.38
2016-04-24T11:56:05.803Z,40.59
2016-04-24T11:57:05.806Z,41.33
2016-04-24T11:58:05.793Z,41.31
2016-04-24T11:59:05.795Z,42.92
2016-04-24T12:00:05.798Z,39.14
2016-04-24T12:01:05.816Z,38.99
2016-04-24T12:02:05.803Z,38.89
2016-04-24T12:03:05.822Z,39.67
2016-04-24T12:04:05.840Z,39.58
2016-04-24T12:05:05.842Z,41.43
2016-04-24T12:06:05.845Z,40.65
2016-04-24T12:07:05.848Z,39.67
2016-04-24T12:08:05.850Z,38.8
2016-04-24T12:09:05.869Z,37.68
2016-04-24T12:10:06.591Z,39.09
2016-04-24T12:11:05.874Z,40.54
2016-04-24T12:12:05.877Z,40.78
2016-04-24T12:13:05.880Z,39.36
2016-04-24T12:14:05.882Z,37.23
2016-04-24T12:15:05.901Z,37.59
2016-04-24T12:16:05.935Z,37.56
2016-04-24T12:17:05.907Z,36.62
2016-04-24T12:18:05.924Z,36.59
2016-04-24T12:19:05.927Z,37.18
2016-04-24T12:20:05.945Z,35.79
2016-04-24T12:21:05.948Z,37.44
2016-04-24T12:22:05.935Z,38.36
2016-04-24T12:23:05.953Z,39.17
2016-04-24T12:24:05.973Z,39.9
2016-04-24T12:25:05.959Z,39.9
2016-04-24T12:26:05.978Z,39.8
2016-04-24T12:27:06.012Z,39.67
2016-04-24T12:28:05.983Z,39.25
2016-04-24T12:29:05.986Z,39.89
2016-04-24T12:30:06.020Z,40.87
2016-04-24T12:31:06.022Z,41.57
2016-04-24T12:32:06.025Z,40.81
2016-04-24T12:33:06.043Z,42.7
2016-04-24T12:34:06.030Z,42.66
2016-04-24T12:35:06.064Z,41.66
2016-04-24T12:36:06.051Z,38.14
2016-04-24T12:37:06.053Z,37.3
2016-04-24T12:38:06.072Z,36.61
2016-04-24T12:39:06.059Z,35.83
2016-04-24T12:40:06.233Z,35.18
2016-04-24T12:41:06.080Z,35.7
2016-04-24T12:42:06.083Z,36.92
2016-04-24T12:43:06.101Z,37.84
2016-04-24T12:44:06.088Z,35.44
2016-04-24T12:45:06.107Z,36.07
2016-04-24T12:46:06.094Z,37.2
2016-04-24T12:47:06.113Z,37.21
2016-04-24T12:48:06.115Z,34.89
2016-04-24T12:49:06.132Z,30.59
2016-04-24T12:50:06.136Z,29.2
2016-04-24T12:51:06.123Z,29.26
2016-04-24T12:52:06.123Z,28.32
2016-04-24T12:53:06.126Z,27.92
2016-04-24T12:54:06.122Z,27.58
2016-04-24T12:55:06.627Z,29.12
2016-04-24T12:56:06.142Z,29.04